Time;durP1;ratioP1;P1;durP2;ratioP2;P2;SDS_P1;SDS_P2;PMS_P1;PMS_P2;Temp;Humidity;BMP_temperature;BMP_pressure;BME280_temperature;BME280_humidity;BME280_pressure;Samples;Min_cycle;Max_cycle;Signal;HPM_P1;HPM_P2
2022/05/25 00:02:20;;;;;;;4.53;3.47;;;;;;;16.10;53.14;101114.75;5135117;27;20049;-62
2022/05/25 00:04:52;;;;;;;6.25;3.78;;;;;;;16.11;53.37;101111.06;5135469;27;20398;-62
2022/05/25 00:07:19;;;;;;;4.90;3.85;;;;;;;16.11;53.12;101124.59;5134964;27;20047;-62
2022/05/25 00:09:46;;;;;;;4.32;3.58;;;;;;;16.11;53.34;101123.75;5135221;27;20043;-61
2022/05/25 00:12:13;;;;;;;5.40;3.65;;;;;;;16.09;53.40;101117.63;5115526;27;20482;-61
2022/05/25 00:14:40;;;;;;;4.80;3.90;;;;;;;16.08;53.27;101115.91;5114824;28;20476;-61
2022/05/25 00:17:07;;;;;;;4.53;3.75;;;;;;;16.06;53.22;101110.63;5114738;28;20043;-62
2022/05/25 00:22:19;;;;;;;4.35;3.45;;;;;;;16.02;53.34;101135.41;5133066;27;20048;-62
2022/05/25 00:24:49;;;;;;;4.30;3.90;;;;;;;16.00;53.11;101134.69;5134725;27;20063;-62
2022/05/25 00:27:17;;;;;;;7.00;4.10;;;;;;;15.97;53.63;101124.13;5134200;27;20523;-62
2022/05/25 00:29:44;;;;;;;5.75;3.92;;;;;;;15.95;53.65;101128.81;5134687;27;20049;-61
2022/05/25 00:32:11;;;;;;;7.43;4.60;;;;;;;15.94;53.65;101132.53;5134645;27;20039;-63
2022/05/25 00:34:40;;;;;;;5.15;4.65;;;;;;;15.92;53.46;101137.22;5134547;27;20560;-62
2022/05/25 00:37:07;;;;;;;5.53;4.00;;;;;;;15.89;53.65;101141.91;5134798;27;20126;-62
2022/05/25 00:39:33;;;;;;;5.38;4.50;;;;;;;15.88;53.73;101136.63;5134326;27;20173;-61
2022/05/25 00:42:03;;;;;;;9.75;4.95;;;;;;;15.88;53.45;101136.63;5134572;27;20050;-62
2022/05/25 00:44:34;;;;;;;13.35;4.50;;;;;;;15.87;53.56;101141.19;5134290;27;20122;-62
2022/05/25 00:47:00;;;;;;;6.45;4.63;;;;;;;15.86;53.91;101144.03;5133869;27;20043;-61
2022/05/25 00:49:30;;;;;;;4.95;4.28;;;;;;;15.83;53.53;101144.31;5116027;27;20042;-62
2022/05/25 00:52:07;;;;;;;6.10;4.18;;;;;;;15.78;54.09;101150.13;5133869;27;20081;-61
2022/05/25 00:54:40;;;;;;;6.75;4.70;;;;;;;15.76;53.87;101138.59;5134053;27;20481;-62
2022/05/25 00:57:30;;;;;;;5.75;4.93;;;;;;;15.73;54.01;101140.72;5133914;27;20354;-62
2022/05/25 01:00:00;;;;;;;4.93;4.43;;;;;;;15.75;53.66;101144.13;5134167;27;20043;-62
2022/05/25 01:02:28;;;;;;;9.60;5.35;;;;;;;15.71;53.71;101143.56;5134225;27;20047;-61
2022/05/25 01:04:59;;;;;;;6.60;4.88;;;;;;;15.66;53.89;101145.81;5115371;27;20039;-62
2022/05/25 01:07:44;;;;;;;5.35;4.85;;;;;;;15.64;54.11;101141.50;5133641;27;20047;-62
2022/05/25 01:10:19;;;;;;;7.90;4.82;;;;;;;15.64;54.11;101142.38;5133229;27;20552;-61
2022/05/25 01:13:10;;;;;;;6.30;4.95;;;;;;;15.62;53.89;101144.34;5133327;27;20035;-61
2022/05/25 01:16:02;;;;;;;5.57;4.85;;;;;;;15.55;54.18;101148.53;5133358;27;20047;-61
2022/05/25 01:18:41;;;;;;;5.88;5.20;;;;;;;15.51;54.08;101150.66;5133198;27;20050;-61
2022/05/25 01:21:12;;;;;;;6.63;5.35;;;;;;;15.49;53.80;101151.78;5133244;27;20096;-62
2022/05/25 01:24:08;;;;;;;5.97;5.38;;;;;;;15.45;54.33;101150.31;5132489;27;20388;-61
2022/05/25 01:26:56;;;;;;;6.97;5.10;;;;;;;15.42;54.07;101150.59;5133399;27;20066;-61
2022/05/25 01:29:50;;;;;;;7.25;4.78;;;;;;;15.40;54.17;101155.28;5132976;27;20051;-61
2022/05/25 01:32:31;;;;;;;6.85;5.60;;;;;;;15.38;54.32;101157.25;5112327;28;20100;-61
2022/05/25 01:35:30;;;;;;;6.20;5.60;;;;;;;15.35;54.42;101158.38;5112338;28;20100;-61
2022/05/25 01:38:18;;;;;;;6.22;5.18;;;;;;;15.33;54.35;101156.78;5112929;28;20059;-61
2022/05/25 01:40:56;;;;;;;6.03;5.18;;;;;;;15.32;54.23;101155.94;5112164;28;20051;-61
2022/05/25 01:43:29;;;;;;;6.82;5.57;;;;;;;15.33;54.46;101154.94;5121738;27;20054;-61
2022/05/25 01:46:04;;;;;;;6.32;5.20;;;;;;;15.33;54.60;101152.25;5132830;27;20047;-61
2022/05/25 01:48:35;;;;;;;6.50;5.60;;;;;;;15.34;54.56;101153.94;5133173;28;20046;-61
2022/05/25 01:51:09;;;;;;;7.82;6.03;;;;;;;15.35;54.42;101158.38;5114535;28;20370;-62
2022/05/25 01:53:41;;;;;;;8.70;5.78;;;;;;;15.36;54.31;101165.50;5132838;28;20046;-61
2022/05/25 01:56:12;;;;;;;6.57;5.72;;;;;;;15.38;54.39;101165.38;5132965;28;20054;-61
2022/05/25 01:58:42;;;;;;;6.82;6.20;;;;;;;15.37;54.53;101164.50;5132664;28;20073;-61
2022/05/25 02:01:09;;;;;;;7.10;6.07;;;;;;;15.36;54.50;101170.06;5132793;28;20100;-61
2022/05/25 02:06:37;;;;;;;7.82;6.70;;;;;;;15.31;54.29;101175.00;5132616;28;20050;-61
2022/05/25 02:09:42;;;;;;;9.32;6.60;;;;;;;15.26;54.41;101176.25;5132625;28;20039;-62
2022/05/25 02:12:37;;;;;;;8.60;6.22;;;;;;;15.23;54.68;101176.53;5133021;28;20066;-62
2022/05/25 02:15:48;;;;;;;9.47;6.33;;;;;;;15.22;54.81;101176.66;5089397;28;20055;-61
2022/05/25 02:18:29;;;;;;;7.20;6.30;;;;;;;15.22;54.75;101179.34;5121469;28;20301;-61
2022/05/25 02:21:05;;;;;;;9.90;6.75;;;;;;;15.20;54.83;101176.78;5132185;28;20382;-61
2022/05/25 02:24:11;;;;;;;8.88;7.40;;;;;;;15.14;54.99;101176.44;5113977;28;20054;-61
2022/05/25 02:26:52;;;;;;;9.68;7.15;;;;;;;15.15;54.77;101180.88;5029118;28;20056;-61
2022/05/25 02:29:31;;;;;;;9.32;6.55;;;;;;;15.12;54.92;101173.88;5125129;28;20055;-61
2022/05/25 02:32:05;;;;;;;7.72;6.80;;;;;;;15.12;54.92;101189.25;5132735;28;20054;-62
2022/05/25 02:34:32;;;;;;;9.13;7.18;;;;;;;15.11;54.74;101182.97;5132517;28;20062;-61
2022/05/25 02:36:59;;;;;;;8.18;6.72;;;;;;;15.09;54.92;101187.66;5132366;28;20046;-61
2022/05/25 02:39:26;;;;;;;10.65;7.38;;;;;;;15.08;54.82;101183.25;5132876;28;20530;-61
2022/05/25 02:41:55;;;;;;;9.00;7.25;;;;;;;15.09;54.86;101187.66;5132688;28;20504;-61
2022/05/25 02:44:24;;;;;;;7.45;6.72;;;;;;;15.08;55.14;101185.94;5134134;27;20046;-61
2022/05/25 02:46:51;;;;;;;7.75;6.57;;;;;;;15.09;54.72;101193.06;5136379;27;20055;-61
2022/05/25 02:49:18;;;;;;;11.98;6.90;;;;;;;15.07;54.84;101189.63;5137116;27;20045;-61
2022/05/25 02:51:45;;;;;;;8.70;7.35;;;;;;;15.07;54.93;101188.78;5135896;27;20039;-61
2022/05/25 02:54:12;;;;;;;7.60;6.70;;;;;;;15.06;54.94;101190.63;5135910;27;20477;-61
2022/05/25 02:56:39;;;;;;;9.65;7.18;;;;;;;15.06;55.28;101196.03;5135677;27;20042;-61
2022/05/25 02:59:06;;;;;;;8.52;7.13;;;;;;;15.06;55.01;101196.03;5135748;27;20043;-61
2022/05/25 03:01:32;;;;;;;9.70;6.68;;;;;;;15.06;54.87;101201.44;5135787;27;20065;-61
2022/05/25 03:04:00;;;;;;;8.80;7.05;;;;;;;15.04;55.47;101203.41;5135018;27;20053;-61
2022/05/25 03:06:27;;;;;;;15.18;7.10;;;;;;;15.02;54.93;101202.69;5135141;27;20100;-61
2022/05/25 03:08:53;;;;;;;8.73;6.95;;;;;;;14.98;55.03;101203.94;5135524;27;20047;-61
2022/05/25 03:11:20;;;;;;;19.15;7.32;;;;;;;14.96;55.17;101211.31;5135504;27;20036;-61
2022/05/25 03:13:55;;;;;;;7.53;6.78;;;;;;;14.93;55.57;101217.84;5134842;27;20043;-61
2022/05/25 03:16:22;;;;;;;;;;;;;;;14.92;55.21;101217.97;5135832;27;20055;-61
2022/05/25 03:18:51;;;;;;;10.50;7.38;;;;;;;14.94;55.07;101216.84;5135865;27;19923;-61
2022/05/25 03:21:18;;;;;;;13.65;7.55;;;;;;;14.91;55.40;101216.25;5135297;27;20397;-61
2022/05/25 03:23:49;;;;;;;12.95;8.23;;;;;;;14.88;55.11;101222.78;5135428;27;20407;-61
2022/05/25 03:26:16;;;;;;;9.00;7.40;;;;;;;14.86;55.68;101222.03;5134757;27;20048;-61
2022/05/25 03:28:43;;;;;;;9.57;7.03;;;;;;;14.85;55.61;101217.59;5135049;27;20046;-61
2022/05/25 03:31:10;;;;;;;8.30;6.78;;;;;;;14.83;55.68;101224.97;5135044;27;20390;-61
2022/05/25 03:33:37;;;;;;;8.00;6.90;;;;;;;14.81;55.63;101229.66;5134359;27;20046;-61
2022/05/25 03:36:04;;;;;;;10.02;6.97;;;;;;;14.79;55.60;101231.63;5134929;27;20417;-61
2022/05/25 03:38:31;;;;;;;8.77;7.25;;;;;;;14.79;56.02;101237.03;5134887;27;20400;-61
2022/05/25 03:40:58;;;;;;;7.60;6.80;;;;;;;14.79;55.83;101228.91;5134800;27;20405;-61
2022/05/25 03:43:30;;;;;;;10.80;6.68;;;;;;;14.78;55.72;101235.31;5134896;27;20041;-61
2022/05/25 03:46:02;;;;;;;8.63;7.10;;;;;;;14.79;55.68;101237.03;5135157;27;20040;-61
2022/05/25 03:48:29;;;;;;;9.48;6.60;;;;;;;14.77;55.66;101235.44;5134074;27;20567;-61
2022/05/25 03:50:55;;;;;;;8.45;6.20;;;;;;;14.74;55.67;101239.25;5134754;27;20042;-61
2022/05/25 03:53:22;;;;;;;7.18;6.47;;;;;;;14.74;55.82;101233.00;5134613;27;20046;-61
2022/05/25 03:55:49;;;;;;;9.20;6.85;;;;;;;14.74;55.85;101250.06;5134080;27;20046;-61
2022/05/25 03:58:15;;;;;;;8.18;7.20;;;;;;;14.73;55.82;101247.50;5134506;27;20041;-61
2022/05/25 04:00:42;;;;;;;7.93;6.45;;;;;;;14.71;55.97;101252.16;5134438;27;20047;-61
2022/05/25 04:03:13;;;;;;;7.10;6.40;;;;;;;14.69;55.75;101248.72;5134422;27;20039;-61
2022/05/25 04:05:41;;;;;;;8.82;6.68;;;;;;;14.70;55.98;101253.16;5134150;27;20035;-61
2022/05/25 04:08:07;;;;;;;9.80;6.60;;;;;;;14.68;55.78;101250.56;5134514;27;20065;-61
2022/05/25 04:10:34;;;;;;;9.38;6.93;;;;;;;14.66;55.89;101257.09;5133933;27;20366;-62
2022/05/25 04:13:01;;;;;;;9.10;6.90;;;;;;;14.65;56.11;101266.19;5134636;27;20039;-61
2022/05/25 04:15:30;;;;;;;7.95;6.53;;;;;;;14.66;56.22;101254.38;5135917;27;20112;-61
2022/05/25 04:17:56;;;;;;;9.93;6.30;;;;;;;14.67;55.87;101258.81;5136303;27;20058;-61
2022/05/25 04:20:24;;;;;;;8.65;6.07;;;;;;;14.68;56.03;101263.22;5134893;27;20047;-61
2022/05/25 04:22:51;;;;;;;7.95;6.75;;;;;;;14.68;56.30;101263.22;5117679;27;20046;-61
2022/05/25 04:25:22;;;;;;;10.90;7.07;;;;;;;14.69;56.38;101264.94;5135919;27;20039;-61
2022/05/25 04:27:51;;;;;;;8.73;6.28;;;;;;;14.68;56.23;101261.38;5117716;27;20508;-61
2022/05/25 04:30:21;;;;;;;9.98;6.13;;;;;;;14.70;56.14;101266.66;5135906;27;20095;-61
2022/05/25 04:32:48;;;;;;;8.43;6.28;;;;;;;14.72;56.32;101262.00;5135265;27;20041;-61
2022/05/25 04:35:16;;;;;;;9.30;6.30;;;;;;;14.72;56.47;101262.00;5138017;27;20031;-61
2022/05/25 04:37:57;;;;;;;8.20;6.30;;;;;;;14.72;56.63;101265.56;5136035;27;20443;-61
2022/05/25 04:40:31;;;;;;;8.23;6.55;;;;;;;14.75;56.72;101268.00;5128121;27;20134;-61
2022/05/25 04:43:00;;;;;;;9.18;6.55;;;;;;;14.75;56.76;101264.44;5125296;27;20035;-62
2022/05/25 04:45:31;;;;;;;8.50;6.50;;;;;;;14.75;56.59;101272.56;5131369;27;20043;-61
2022/05/25 04:48:00;;;;;;;8.38;6.07;;;;;;;14.75;56.63;101277.97;5130297;27;20043;-61
2022/05/25 04:50:30;;;;;;;7.88;6.10;;;;;;;14.75;56.83;101272.56;5133374;27;20063;-61
2022/05/25 04:52:59;;;;;;;8.57;6.35;;;;;;;14.78;57.20;101275.00;5133703;27;20405;-61
2022/05/25 04:58:22;;;;;;;9.05;5.72;;;;;;;14.79;57.04;101282.13;5125786;27;20557;-63
2022/05/25 05:00:49;;;;;;;7.45;6.15;;;;;;;14.81;57.15;101282.88;5122285;27;20036;-60
2022/05/25 05:03:17;;;;;;;7.32;5.93;;;;;;;14.84;57.24;101283.47;5132684;27;20496;-61
2022/05/25 05:05:46;;;;;;;9.20;6.65;;;;;;;14.88;57.63;101292.22;5133417;27;20039;-61
2022/05/25 05:08:13;;;;;;;9.55;6.55;;;;;;;14.88;57.38;101295.78;5113627;27;20047;-61
2022/05/25 05:10:40;;;;;;;7.82;5.90;;;;;;;14.91;57.44;101294.69;5129093;27;20067;-61
2022/05/25 05:13:08;;;;;;;10.23;6.35;;;;;;;14.94;57.85;101289.03;5131992;27;20046;-61
2022/05/25 05:15:41;;;;;;;8.50;5.90;;;;;;;14.98;57.76;101285.06;5133452;27;20551;-61
2022/05/25 05:18:09;;;;;;;8.68;6.53;;;;;;;15.03;57.63;101284.69;5133771;27;20442;-61
2022/05/25 05:21:04;;;;;;;10.85;6.03;;;;;;;15.08;57.85;101290.59;5119107;27;20131;-61
2022/05/25 05:23:31;;;;;;;10.05;6.30;;;;;;;15.13;57.91;101291.91;5133499;27;20047;-61
2022/05/25 05:25:59;;;;;;;9.65;6.47;;;;;;;15.18;58.08;101294.25;5133732;27;20049;-60
2022/05/25 05:28:31;;;;;;;11.55;6.57;;;;;;;15.20;58.22;101292.25;5133629;27;20043;-61
2022/05/25 05:30:59;;;;;;;7.80;6.03;;;;;;;15.22;57.92;101285.75;5132666;27;20055;-61
2022/05/25 05:33:27;;;;;;;13.52;6.53;;;;;;;15.26;58.13;101284.50;5132971;27;20039;-61
2022/05/25 05:36:18;;;;;;;6.38;5.43;;;;;;;15.29;58.55;101288.78;5132376;27;20043;-61
2022/05/25 05:38:53;;;;;;;11.20;6.95;;;;;;;15.36;58.16;101287.28;5132714;27;20047;-61
2022/05/25 05:41:23;;;;;;;9.87;5.87;;;;;;;15.40;58.48;101287.88;5133293;27;20362;-61
2022/05/25 05:43:54;;;;;;;15.38;6.50;;;;;;;15.43;58.30;101290.34;5132811;27;20639;-62
2022/05/25 05:46:22;;;;;;;8.68;6.30;;;;;;;15.49;58.37;101284.41;5132810;27;20050;-61
2022/05/25 05:48:49;;;;;;;11.82;6.50;;;;;;;15.55;58.45;101283.88;5129782;27;20031;-62
2022/05/25 05:51:15;;;;;;;7.88;5.53;;;;;;;15.64;58.77;101276.88;5126558;28;20043;-61
2022/05/25 05:53:44;;;;;;;9.90;5.85;;;;;;;15.75;58.59;101274.13;5132446;28;20031;-60
2022/05/25 05:56:13;;;;;;;14.20;6.25;;;;;;;15.86;58.52;101269.50;5132263;28;20058;-63
2022/05/25 05:58:39;;;;;;;15.95;5.70;;;;;;;16.00;58.66;101278.28;5127849;28;20040;-61
2022/05/25 06:01:08;;;;;;;7.45;5.32;;;;;;;16.10;58.58;101273.75;5123640;28;20039;-62
2022/05/25 06:03:35;;;;;;;9.68;5.68;;;;;;;16.19;58.40;101276.53;5127164;28;20076;-61
2022/05/25 06:06:06;;;;;;;10.50;6.43;;;;;;;16.26;58.78;101282.25;5132424;28;20067;-61
2022/05/25 06:08:32;;;;;;;9.23;5.70;;;;;;;16.38;58.57;101278.50;5126174;28;20079;-61
2022/05/25 06:10:59;;;;;;;9.95;5.40;;;;;;;16.47;58.45;101277.69;5113855;28;20046;-61
2022/05/25 06:13:26;;;;;;;10.63;5.80;;;;;;;16.62;58.18;101280.88;5129200;28;20109;-61
2022/05/25 06:21:25;;;;;;;9.38;5.30;;;;;;;17.21;58.08;101281.94;5133812;27;20122;-61
2022/05/25 06:23:57;;;;;;;13.70;5.38;;;;;;;17.39;58.09;101286.50;5133636;27;20075;-62
2022/05/25 06:26:27;;;;;;;12.73;5.63;;;;;;;17.54;57.81;101292.38;5133207;27;20095;-61
2022/05/25 06:28:54;;;;;;;8.48;5.25;;;;;;;17.63;57.44;101290.66;5130720;27;20044;-61
2022/05/25 06:31:20;;;;;;;10.00;6.22;;;;;;;17.79;57.71;101299.09;5133869;27;20039;-61
2022/05/25 06:33:50;;;;;;;10.80;5.32;;;;;;;17.93;57.42;101298.69;5111369;27;20505;-61
2022/05/25 06:36:20;;;;;;;11.43;6.25;;;;;;;18.10;57.33;101308.81;5109387;28;20044;-61
2022/05/25 06:38:48;;;;;;;6.40;5.18;;;;;;;18.24;56.84;101302.06;5135233;27;20042;-61
2022/05/25 06:41:15;;;;;;;9.57;5.70;;;;;;;18.33;56.60;101301.16;5118082;27;20039;-61
2022/05/25 06:43:42;;;;;;;7.32;6.18;;;;;;;18.44;56.68;101308.28;5136248;27;20043;-61
2022/05/25 06:46:11;;;;;;;8.98;5.63;;;;;;;18.57;56.47;101308.81;5136091;27;20039;-63
2022/05/25 06:48:50;;;;;;;12.57;5.55;;;;;;;18.77;56.46;101304.19;5119390;27;20043;-61
2022/05/25 06:51:20;;;;;;;9.80;5.35;;;;;;;18.96;56.09;101311.38;5136561;27;20062;-61
2022/05/25 06:53:53;;;;;;;8.38;5.53;;;;;;;19.15;56.14;101315.88;5136129;27;20047;-63
2022/05/25 06:56:22;;;;;;;12.77;5.97;;;;;;;19.30;55.87;101317.03;5136609;27;20121;-62
2022/05/25 06:58:48;;;;;;;8.52;5.32;;;;;;;19.46;55.82;101319.13;5136222;27;20050;-62
2022/05/25 07:01:15;;;;;;;8.48;5.70;;;;;;;19.66;55.53;101320.69;5136481;27;20488;-62
2022/05/25 07:03:43;;;;;;;9.88;5.38;;;;;;;19.77;55.26;101319.59;5135835;27;20041;-62
2022/05/25 07:06:24;;;;;;;9.73;5.60;;;;;;;19.93;54.85;101323.31;5119999;27;20067;-62
2022/05/25 07:08:52;;;;;;;8.68;5.47;;;;;;;20.13;54.86;101323.16;5135985;27;20100;-62
2022/05/25 07:11:20;;;;;;;8.10;5.28;;;;;;;20.27;54.34;101319.84;5136279;27;20057;-62
2022/05/25 07:16:20;;;;;;;6.47;4.55;;;;;;;20.51;54.11;101319.16;5081877;28;20497;-62
2022/05/25 07:18:48;;;;;;;8.23;4.70;;;;;;;20.58;53.91;101329.28;5115935;27;20111;-63
2022/05/25 07:21:19;;;;;;;12.02;4.63;;;;;;;20.72;53.55;101327.81;5135990;27;20031;-62
2022/05/25 07:23:50;;;;;;;9.82;4.97;;;;;;;20.87;53.45;101334.38;5136290;27;20050;-62
2022/05/25 07:26:19;;;;;;;7.53;4.40;;;;;;;20.95;53.28;101330.84;5135615;27;20497;-61
2022/05/25 07:28:46;;;;;;;6.93;4.30;;;;;;;21.05;53.02;101339.75;5136129;27;20043;-61
2022/05/25 07:31:35;;;;;;;9.32;4.20;;;;;;;21.11;52.47;101339.09;5134503;27;20070;-62
2022/05/25 07:34:19;;;;;;;8.93;4.40;;;;;;;21.18;52.50;101339.28;5133911;27;20074;-61
2022/05/25 07:37:15;;;;;;;6.88;3.80;;;;;;;21.13;51.90;101345.25;5134407;27;20035;-61
2022/05/25 07:39:49;;;;;;;5.63;4.05;;;;;;;21.11;51.96;101343.69;5114374;28;20043;-61
2022/05/25 07:42:18;;;;;;;6.63;3.85;;;;;;;21.09;51.84;101346.59;5114305;28;20501;-61
2022/05/25 07:44:51;;;;;;;5.47;3.38;;;;;;;21.08;51.68;101346.75;5128217;27;20489;-62
2022/05/25 07:47:18;;;;;;;7.60;3.90;;;;;;;21.06;51.66;101351.53;5134270;27;20043;-63
2022/05/25 07:49:44;;;;;;;6.53;3.95;;;;;;;21.02;51.46;101348.28;5134534;27;20119;-62
2022/05/25 07:52:11;;;;;;;6.50;3.97;;;;;;;21.07;51.44;101348.63;5134947;27;20043;-63
2022/05/25 07:54:45;;;;;;;6.78;3.70;;;;;;;21.22;51.90;101351.59;5134172;27;20489;-62
2022/05/25 07:57:12;;;;;;;6.03;4.13;;;;;;;21.39;51.76;101356.09;5133842;27;20047;-62
2022/05/25 07:59:39;;;;;;;8.80;3.85;;;;;;;21.58;51.69;101354.13;5133926;27;20040;-63
2022/05/25 08:07:50;;;;;;;8.05;4.13;;;;;;;22.00;51.28;101359.47;5133922;27;20070;-62
2022/05/25 08:10:24;;;;;;;6.25;4.30;;;;;;;22.09;50.86;101353.00;5133986;27;20031;-62
2022/05/25 08:12:55;;;;;;;6.93;4.05;;;;;;;22.13;50.88;101363.41;5133917;27;20044;-63
2022/05/25 08:15:24;;;;;;;6.05;4.45;;;;;;;22.14;50.59;101362.38;5133338;27;20034;-60
2022/05/25 08:17:51;;;;;;;7.57;3.75;;;;;;;22.09;50.46;101359.31;5133414;27;20062;-62
2022/05/25 08:20:19;;;;;;;6.38;3.97;;;;;;;22.02;50.14;101357.41;5134038;27;20063;-62
2022/05/25 08:22:45;;;;;;;6.47;4.32;;;;;;;21.97;49.53;101363.38;5133696;27;20050;-63
2022/05/25 08:25:17;;;;;;;6.07;3.90;;;;;;;21.93;49.70;101364.75;5133824;27;20035;-63
2022/05/25 08:27:44;;;;;;;5.07;2.83;;;;;;;21.93;49.75;101352.97;5133619;27;20043;-62
2022/05/25 08:30:17;;;;;;;8.43;3.17;;;;;;;21.97;49.85;101352.44;5115191;27;20415;-63
2022/05/25 08:32:44;;;;;;;5.20;3.20;;;;;;;22.12;50.21;101358.13;5134094;27;20031;-63
2022/05/25 08:35:13;;;;;;;6.20;3.47;;;;;;;22.24;50.01;101358.63;5133762;27;20042;-63
2022/05/25 08:37:41;;;;;;;4.43;3.17;;;;;;;22.34;49.87;101354.72;5133556;27;20032;-62
2022/05/25 08:40:09;;;;;;;5.35;3.08;;;;;;;22.42;49.90;101351.97;5133126;27;20548;-62
2022/05/25 08:42:45;;;;;;;5.53;2.90;;;;;;;22.47;49.26;101351.44;5133102;27;20096;-63
2022/05/25 08:45:12;;;;;;;6.22;2.90;;;;;;;22.54;49.73;101357.91;5133165;27;20043;-63
2022/05/25 08:47:46;;;;;;;3.42;2.58;;;;;;;22.67;49.60;101347.28;5133037;27;20043;-62
2022/05/25 08:50:13;;;;;;;4.13;2.60;;;;;;;22.85;49.77;101348.97;5133062;27;20063;-62
2022/05/25 08:52:39;;;;;;;5.93;3.00;;;;;;;23.05;49.79;101350.28;5133253;27;20044;-63
2022/05/25 08:55:11;;;;;;;5.30;3.00;;;;;;;23.21;49.42;101346.59;5133085;27;20047;-63
2022/05/25 08:57:48;;;;;;;6.03;3.45;;;;;;;23.34;48.92;101344.13;5132761;27;20051;-62
2022/05/25 09:00:17;;;;;;;5.97;2.88;;;;;;;23.46;48.43;101342.69;5133222;27;20051;-61
2022/05/25 09:03:24;;;;;;;6.65;3.15;;;;;;;23.52;48.08;101341.09;5133032;27;20405;-63
2022/05/25 09:06:12;;;;;;;5.97;3.20;;;;;;;23.63;47.81;101349.81;5129968;27;20051;-61
2022/05/25 09:09:08;;;;;;;3.92;2.28;;;;;;;23.77;47.76;101348.16;5132689;27;20047;-62
2022/05/25 09:11:42;;;;;;;4.80;2.90;;;;;;;23.91;47.40;101347.38;5132893;27;20382;-61
2022/05/25 09:14:26;;;;;;;4.72;2.70;;;;;;;24.05;47.36;101356.72;5132801;27;20036;-62
2022/05/25 09:16:57;;;;;;;4.20;2.20;;;;;;;24.20;47.63;101346.63;5133270;27;20039;-62
2022/05/25 09:19:34;;;;;;;3.70;2.25;;;;;;;24.31;47.35;101351.69;5132529;27;20046;-61
2022/05/25 09:22:12;;;;;;;4.22;2.10;;;;;;;24.40;47.08;101352.47;5132945;27;20039;-62
2022/05/25 09:24:39;;;;;;;5.07;2.85;;;;;;;24.49;46.68;101345.84;5132325;27;20572;-62
2022/05/25 09:27:09;;;;;;;4.80;2.75;;;;;;;24.50;45.93;101349.44;5132631;27;20125;-62
2022/05/25 09:29:36;;;;;;;2.92;2.50;;;;;;;24.51;46.05;101348.41;5132765;27;20054;-62
2022/05/25 09:32:25;;;;;;;6.88;2.97;;;;;;;24.57;45.82;101353.19;5132781;27;20042;-62
2022/05/25 09:35:00;;;;;;;7.88;2.47;;;;;;;24.65;45.84;101364.06;5132061;27;20131;-62
2022/05/25 09:37:44;;;;;;;3.00;2.22;;;;;;;24.72;45.67;101359.53;5132363;27;20400;-63
2022/05/25 09:40:19;;;;;;;4.15;1.80;;;;;;;24.79;45.68;101359.63;5131999;27;20049;-63
2022/05/25 09:42:52;;;;;;;2.95;1.80;;;;;;;24.83;45.15;101358.19;5132337;27;20043;-62
2022/05/25 09:45:20;;;;;;;3.60;1.75;;;;;;;24.88;44.86;101355.72;5132274;27;20054;-63
2022/05/25 09:47:48;;;;;;;6.60;1.83;;;;;;;24.97;44.89;101355.47;5132157;27;20051;-63
2022/05/25 09:50:29;;;;;;;4.13;2.03;;;;;;;25.11;44.15;101356.50;5132420;27;20039;-63
2022/05/25 09:53:02;;;;;;;3.65;1.60;;;;;;;25.23;44.13;101360.47;5131962;27;20057;-62
2022/05/25 09:55:46;;;;;;;5.18;1.52;;;;;;;25.31;43.63;101362.28;5138653;27;20043;-62
2022/05/25 09:58:33;;;;;;;5.50;1.53;;;;;;;25.40;43.42;101369.38;5138699;27;20047;-63
2022/05/25 10:01:05;;;;;;;4.85;1.85;;;;;;;25.50;43.54;101366.31;5130634;27;20053;-63
2022/05/25 10:03:41;;;;;;;4.10;1.35;;;;;;;25.56;42.94;101368.28;5138119;27;20106;-61
2022/05/25 10:06:24;;;;;;;4.03;1.40;;;;;;;25.61;42.71;101372.16;5138718;27;20058;-62
2022/05/25 10:09:07;;;;;;;2.58;1.33;;;;;;;25.65;42.42;101379.00;5103391;27;20058;-61
2022/05/25 10:11:49;;;;;;;4.88;1.52;;;;;;;25.63;41.84;101380.22;5138849;27;20043;-61
2022/05/25 10:14:35;;;;;;;4.95;1.60;;;;;;;25.54;41.79;101375.88;5138970;27;20416;-61
2022/05/25 10:17:14;;;;;;;2.53;1.60;;;;;;;25.50;41.53;101369.91;5138666;27;20039;-62
2022/05/25 10:19:50;;;;;;;3.67;1.60;;;;;;;25.47;41.49;101375.81;5138601;27;20062;-62
2022/05/25 10:22:52;;;;;;;4.32;1.70;;;;;;;25.39;40.86;101367.66;5120465;27;20392;-62
2022/05/25 10:25:30;;;;;;;8.48;1.55;;;;;;;25.31;41.13;101365.88;5133961;27;20504;-61
2022/05/25 10:27:58;;;;;;;2.30;1.02;;;;;;;25.32;41.14;101375.84;5138561;27;20060;-62
2022/05/25 10:39:13;;;;;;;3.80;1.42;;;;;;;25.19;39.98;101370.13;5138742;27;20122;-61
2022/05/25 10:41:43;;;;;;;5.35;1.23;;;;;;;25.12;39.88;101371.09;5138390;27;20043;-62
2022/05/25 10:44:22;;;;;;;3.28;1.10;;;;;;;24.98;39.56;101370.91;5138959;27;20468;-62
2022/05/25 10:46:55;;;;;;;1.60;0.90;;;;;;;24.82;39.18;101373.84;5138753;27;20050;-62
2022/05/25 10:49:29;;;;;;;2.25;0.90;;;;;;;24.67;38.87;101364.72;5120185;27;20047;-61
2022/05/25 10:52:11;;;;;;;2.00;0.95;;;;;;;24.60;38.91;101364.63;5137796;27;20039;-62
2022/05/25 10:54:55;;;;;;;3.08;0.90;;;;;;;24.59;39.29;101360.19;5138367;27;20043;-61
2022/05/25 10:57:52;;;;;;;5.05;1.15;;;;;;;24.58;39.03;101355.72;5138305;27;20537;-60
2022/05/25 11:00:23;;;;;;;3.05;0.95;;;;;;;24.55;39.06;101350.63;5138056;27;20038;-60
2022/05/25 11:03:11;;;;;;;1.60;1.05;;;;;;;24.55;39.35;101347.88;5137751;27;20043;-60
2022/05/25 11:05:52;;;;;;;1.88;1.00;;;;;;;24.59;39.30;101340.09;5136445;27;20381;-60
2022/05/25 11:08:38;;;;;;;1.30;0.77;;;;;;;24.61;39.66;101352.59;5134341;27;20493;-60
2022/05/25 11:11:43;;;;;;;2.83;0.88;;;;;;;24.71;39.00;101346.84;5134982;27;20363;-60
2022/05/25 11:14:20;;;;;;;1.23;0.70;;;;;;;24.88;39.35;101351.09;5135030;27;20495;-61
2022/05/25 11:17:22;;;;;;;2.03;0.50;;;;;;;25.04;38.84;101344.56;5134703;27;20401;-61
2022/05/25 11:20:17;;;;;;;2.10;0.40;;;;;;;25.12;39.05;101346.34;5119294;27;20043;-60
2022/05/25 11:23:05;;;;;;;1.60;0.65;;;;;;;25.29;38.80;101351.47;5116490;27;20039;-60
2022/05/25 11:25:51;;;;;;;2.88;0.75;;;;;;;25.43;38.81;101348.88;5134930;27;20039;-60
2022/05/25 11:28:26;;;;;;;;;;;;;;;25.54;38.66;101334.63;5134218;27;20035;-60
2022/05/25 11:31:23;;;;;;;2.97;0.57;;;;;;;25.71;38.99;101352.59;5134098;27;19934;-61
2022/05/25 11:34:11;;;;;;;1.88;0.85;;;;;;;25.92;38.74;101349.84;5124724;27;20039;-60
2022/05/25 11:37:27;;;;;;;1.40;0.70;;;;;;;26.07;37.84;101348.94;5133833;27;20481;-60
2022/05/25 11:40:21;;;;;;;2.40;0.80;;;;;;;26.13;37.44;101346.25;5133574;27;20050;-61
2022/05/25 11:43:10;;;;;;;1.92;0.55;;;;;;;26.12;37.23;101330.78;5135943;27;20118;-61
2022/05/25 11:45:57;;;;;;;2.47;0.60;;;;;;;26.06;37.03;101339.00;5117128;27;20140;-61
2022/05/25 11:49:15;;;;;;;4.32;0.90;;;;;;;26.07;37.18;101338.78;5135380;27;20043;-61
2022/05/25 11:52:02;;;;;;;1.77;0.60;;;;;;;26.16;36.99;101336.75;5135211;27;20050;-61
2022/05/25 11:54:54;;;;;;;4.82;0.80;;;;;;;26.24;37.07;101331.94;5118099;27;20058;-61
2022/05/25 11:57:45;;;;;;;2.13;0.60;;;;;;;26.39;37.15;101328.28;5134929;27;20373;-61
2022/05/25 12:00:24;;;;;;;2.10;0.80;;;;;;;26.48;36.97;101327.06;5134758;27;20039;-61
2022/05/25 12:03:03;;;;;;;1.52;0.70;;;;;;;26.60;37.01;101325.44;5135144;27;20504;-62
2022/05/25 12:05:36;;;;;;;1.30;0.60;;;;;;;26.72;36.83;101334.00;5134830;27;20068;-61
2022/05/25 12:08:37;;;;;;;3.47;0.98;;;;;;;26.78;36.15;101333.22;5134773;27;20058;-61
2022/05/25 12:11:09;;;;;;;2.42;0.90;;;;;;;26.85;36.19;101331.34;5134531;27;20043;-61
2022/05/25 12:17:01;;;;;;;2.45;0.73;;;;;;;27.07;35.86;101337.63;5100288;27;20058;-61
2022/05/25 12:19:33;;;;;;;1.27;0.60;;;;;;;27.03;35.64;101331.69;5134883;27;20467;-60
2022/05/25 12:22:05;;;;;;;3.13;0.90;;;;;;;27.01;35.31;101338.44;5134456;27;20417;-61
2022/05/25 12:24:37;;;;;;;3.17;0.95;;;;;;;26.94;35.32;101332.88;5116508;27;20037;-61
2022/05/25 12:27:09;;;;;;;2.15;0.60;;;;;;;26.83;35.45;101339.81;5134229;27;20054;-60
2022/05/25 12:29:51;;;;;;;2.55;0.90;;;;;;;26.72;35.23;101345.88;5134275;27;20047;-61
2022/05/25 12:32:20;;;;;;;2.53;0.88;;;;;;;26.59;35.35;101337.53;5133496;27;20091;-62